createdAt,value
2022-08-19T00:00:53.105Z,17.25
2022-08-19T00:03:22.714Z,17.20
2022-08-19T00:05:52.600Z,17.17
2022-08-19T00:08:21.875Z,17.13
2022-08-19T00:10:51.163Z,17.09
2022-08-19T00:13:21.491Z,17.08
2022-08-19T00:15:51.175Z,17.07
2022-08-19T00:18:21.842Z,17.07
2022-08-19T00:20:51.351Z,17.08
2022-08-19T00:23:20.791Z,17.09
2022-08-19T00:25:51.207Z,17.09
2022-08-19T00:28:22.120Z,17.08
2022-08-19T00:30:54.088Z,17.04
2022-08-19T00:33:24.824Z,17.00
2022-08-19T00:35:56.116Z,16.94
2022-08-19T00:38:29.641Z,16.91
2022-08-19T00:41:08.430Z,16.90
2022-08-19T00:43:37.702Z,16.90
2022-08-19T00:46:07.198Z,16.89
2022-08-19T00:48:38.471Z,16.88
2022-08-19T00:51:07.931Z,16.87
2022-08-19T00:53:38.567Z,16.86
2022-08-19T00:56:10.793Z,16.81
2022-08-19T00:58:41.461Z,16.76
2022-08-19T01:01:12.476Z,16.73
2022-08-19T01:03:57.591Z,16.70
2022-08-19T01:06:28.730Z,16.68
2022-08-19T01:08:58.975Z,16.65
2022-08-19T01:11:36.392Z,16.63
2022-08-19T01:14:07.373Z,16.61
2022-08-19T01:16:40.781Z,16.59
2022-08-19T01:19:21.513Z,16.58
2022-08-19T01:22:13.972Z,16.57
2022-08-19T01:24:49.997Z,16.54
2022-08-19T01:27:22.640Z,16.50
2022-08-19T01:29:56.497Z,16.49
2022-08-19T01:32:33.502Z,16.48
2022-08-19T01:35:06.923Z,16.49
2022-08-19T01:37:59.831Z,16.47
2022-08-19T01:40:35.629Z,16.45
2022-08-19T01:43:08.099Z,16.43
2022-08-19T01:45:43.210Z,16.39
2022-08-19T01:48:16.220Z,16.36
2022-08-19T01:50:50.845Z,16.32
2022-08-19T01:53:21.496Z,16.28
2022-08-19T01:55:58.373Z,16.25
2022-08-19T01:58:44.303Z,16.24
2022-08-19T02:01:16.061Z,16.21
2022-08-19T02:03:48.429Z,16.20
2022-08-19T02:06:20.424Z,16.18
2022-08-19T02:09:00.682Z,16.20
2022-08-19T02:11:38.576Z,16.22
2022-08-19T02:14:09.920Z,16.21
2022-08-19T02:16:43.134Z,16.20
2022-08-19T02:19:14.089Z,16.21
2022-08-19T02:21:46.074Z,16.21
2022-08-19T02:24:18.827Z,16.21
2022-08-19T02:26:49.006Z,16.22
2022-08-19T02:29:19.086Z,16.19
2022-08-19T02:31:50.318Z,16.16
2022-08-19T02:34:22.296Z,16.13
2022-08-19T02:36:54.410Z,16.12
2022-08-19T02:39:25.435Z,16.10
2022-08-19T02:41:55.553Z,16.10
2022-08-19T02:44:31.205Z,16.08
2022-08-19T02:47:02.439Z,16.07
2022-08-19T02:49:34.671Z,16.06
2022-08-19T02:52:05.979Z,16.05
2022-08-19T02:54:36.468Z,16.01
2022-08-19T02:57:07.791Z,15.99
2022-08-19T02:59:37.572Z,15.96
2022-08-19T03:02:07.943Z,15.94
2022-08-19T03:04:38.772Z,15.95
2022-08-19T03:07:11.191Z,15.94
2022-08-19T03:09:42.468Z,15.93
2022-08-19T03:12:13.626Z,15.92
2022-08-19T03:14:43.305Z,15.93
2022-08-19T03:17:12.998Z,15.94
2022-08-19T03:19:44.527Z,15.95
2022-08-19T03:22:14.522Z,15.95
2022-08-19T03:24:45.305Z,15.95
2022-08-19T03:27:15.533Z,15.95
2022-08-19T03:29:45.392Z,15.95
2022-08-19T03:32:19.850Z,15.95
2022-08-19T03:35:03.750Z,15.93
2022-08-19T03:37:33.235Z,15.94
2022-08-19T03:40:04.482Z,15.97
2022-08-19T03:42:49.016Z,15.99
2022-08-19T03:45:20.017Z,16.05
2022-08-19T03:47:50.197Z,16.08
2022-08-19T03:50:21.010Z,16.10
2022-08-19T03:52:54.255Z,16.13
2022-08-19T03:55:24.270Z,16.16
2022-08-19T03:57:58.630Z,16.17
2022-08-19T04:00:28.118Z,16.19
2022-08-19T04:02:59.996Z,16.20
2022-08-19T04:05:31.131Z,16.20
2022-08-19T04:08:00.544Z,16.21
2022-08-19T04:10:30.586Z,16.26
2022-08-19T04:12:59.934Z,16.39
2022-08-19T04:15:33.058Z,16.58
2022-08-19T04:18:02.333Z,16.81
2022-08-19T04:20:31.663Z,17.01
2022-08-19T04:23:00.748Z,17.21
2022-08-19T04:25:30.902Z,17.41
2022-08-19T04:27:59.525Z,17.57
2022-08-19T04:30:28.550Z,17.68
2022-08-19T04:32:57.332Z,17.79
2022-08-19T04:35:26.527Z,17.86
2022-08-19T04:37:55.635Z,17.96
2022-08-19T04:40:43.163Z,18.13
2022-08-19T04:43:15.323Z,18.33
2022-08-19T04:45:48.106Z,18.53
2022-08-19T04:48:26.877Z,18.79
2022-08-19T04:50:59.083Z,19.19
2022-08-19T04:53:37.699Z,19.59
2022-08-19T04:56:13.899Z,20.02
2022-08-19T04:58:45.143Z,20.41
2022-08-19T05:01:18.799Z,20.79
2022-08-19T05:03:47.810Z,21.12
2022-08-19T05:06:20.525Z,21.35
2022-08-19T05:08:50.223Z,21.58
2022-08-19T05:11:26.423Z,21.84
2022-08-19T05:13:56.716Z,21.90
2022-08-19T05:16:27.620Z,22.17
2022-08-19T05:19:15.564Z,22.44
2022-08-19T05:22:04.335Z,22.31
2022-08-19T05:24:35.567Z,22.16
2022-08-19T05:27:07.970Z,22.20
2022-08-19T05:29:37.477Z,22.44
2022-08-19T05:32:11.874Z,22.76
2022-08-19T05:34:41.085Z,23.21
2022-08-19T05:37:10.189Z,23.46
2022-08-19T05:39:41.945Z,23.69
2022-08-19T05:42:13.391Z,24.09
2022-08-19T05:44:45.353Z,24.48
2022-08-19T05:47:16.206Z,24.75
2022-08-19T05:49:44.830Z,24.70
2022-08-19T05:52:18.659Z,24.56
2022-08-19T05:54:51.219Z,24.39
2022-08-19T05:57:20.559Z,24.28
2022-08-19T05:59:53.269Z,24.53
2022-08-19T06:02:28.799Z,24.79
2022-08-19T06:04:57.443Z,24.67
2022-08-19T06:07:26.360Z,24.86
2022-08-19T06:09:59.698Z,25.04
2022-08-19T06:12:34.757Z,25.09
2022-08-19T06:15:09.165Z,25.31
2022-08-19T06:17:38.125Z,25.21
2022-08-19T06:20:10.250Z,25.45
2022-08-19T06:22:40.828Z,25.63
2022-08-19T06:25:10.831Z,25.69
2022-08-19T06:27:58.632Z,25.81
2022-08-19T06:30:31.919Z,25.90
2022-08-19T06:33:01.003Z,26.34
2022-08-19T06:35:30.791Z,26.73
2022-08-19T06:38:00.860Z,26.99
2022-08-19T06:40:30.216Z,27.45
2022-08-19T06:43:01.816Z,27.61
2022-08-19T06:45:34.885Z,27.67
2022-08-19T06:48:04.620Z,27.72
2022-08-19T06:50:33.318Z,28.07
2022-08-19T06:53:07.166Z,28.12
2022-08-19T06:55:36.598Z,28.02
2022-08-19T06:58:06.610Z,28.05
2022-08-19T07:00:35.659Z,28.26
2022-08-19T07:03:08.494Z,28.20
2022-08-19T07:05:45.719Z,28.35
2022-08-19T07:08:15.476Z,28.28
2022-08-19T07:10:46.926Z,28.92
2022-08-19T07:13:16.019Z,29.14
2022-08-19T07:15:45.561Z,29.24
2022-08-19T07:18:14.637Z,29.61
2022-08-19T07:20:44.533Z,29.95
2022-08-19T07:23:16.656Z,29.86
2022-08-19T07:25:52.965Z,30.12
2022-08-19T07:28:24.680Z,30.22
2022-08-19T07:30:54.123Z,30.36
2022-08-19T07:33:24.379Z,30.66
2022-08-19T07:35:56.818Z,31.15
2022-08-19T07:38:25.300Z,31.20
2022-08-19T07:40:55.619Z,31.30
2022-08-19T07:43:26.316Z,31.48
2022-08-19T07:46:04.439Z,31.68
2022-08-19T07:48:33.983Z,32.01
2022-08-19T07:51:06.447Z,32.10
2022-08-19T07:53:39.641Z,32.15
2022-08-19T07:56:09.151Z,32.09
2022-08-19T07:58:41.928Z,32.19
2022-08-19T08:01:16.669Z,32.34
2022-08-19T08:04:04.888Z,32.30
2022-08-19T08:06:53.971Z,32.27
2022-08-19T08:09:39.396Z,31.96
2022-08-19T08:12:30.816Z,32.03
2022-08-19T08:15:08.517Z,32.10
2022-08-19T08:17:49.109Z,32.36
2022-08-19T08:20:19.407Z,32.50
2022-08-19T08:23:08.408Z,32.48
2022-08-19T08:25:38.619Z,32.15
2022-08-19T08:28:08.843Z,32.51
2022-08-19T08:30:45.251Z,32.98
2022-08-19T08:35:47.514Z,33.20
2022-08-19T08:38:19.072Z,33.40
2022-08-19T08:40:57.869Z,33.37
2022-08-19T08:43:32.204Z,33.64
2022-08-19T08:46:04.501Z,32.81
2022-08-19T08:48:55.974Z,33.44
2022-08-19T08:51:35.172Z,34.04
2022-08-19T08:54:09.769Z,34.31
2022-08-19T08:56:44.459Z,33.56
2022-08-19T08:59:29.427Z,33.77
2022-08-19T09:01:58.119Z,33.85
2022-08-19T09:04:27.719Z,33.73
2022-08-19T09:07:26.242Z,33.82
2022-08-19T09:10:44.311Z,33.56
2022-08-19T09:13:37.485Z,34.08
2022-08-19T09:16:17.456Z,34.43
2022-08-19T09:18:55.770Z,35.30
2022-08-19T09:21:33.176Z,35.88
2022-08-19T09:24:05.803Z,36.45
2022-08-19T09:26:52.313Z,36.90
2022-08-19T09:29:23.690Z,37.11
2022-08-19T09:31:52.377Z,36.47
2022-08-19T09:34:22.202Z,36.45
2022-08-19T09:36:54.882Z,36.55
2022-08-19T09:39:24.064Z,36.67
2022-08-19T09:41:54.109Z,36.72
2022-08-19T09:44:22.675Z,37.08
2022-08-19T09:46:52.267Z,37.00
2022-08-19T09:49:25.049Z,36.86
2022-08-19T09:51:57.526Z,36.59
2022-08-19T09:54:27.133Z,37.15
2022-08-19T09:56:59.059Z,37.16
2022-08-19T09:59:29.111Z,37.59
2022-08-19T10:02:03.817Z,37.99
2022-08-19T10:04:58.126Z,38.60
2022-08-19T10:07:29.028Z,38.67
2022-08-19T10:10:10.567Z,38.62
2022-08-19T10:12:39.439Z,38.81
2022-08-19T10:15:09.226Z,38.68
2022-08-19T10:17:38.665Z,38.87
2022-08-19T10:20:08.426Z,38.89
2022-08-19T10:22:38.791Z,38.72
2022-08-19T10:25:08.176Z,38.94
2022-08-19T10:27:36.985Z,39.08
2022-08-19T10:30:11.222Z,38.61
2022-08-19T10:32:40.105Z,38.93
2022-08-19T10:35:16.202Z,39.14
2022-08-19T10:37:57.468Z,38.94
2022-08-19T10:40:33.140Z,39.66
2022-08-19T10:43:01.771Z,39.91
2022-08-19T10:45:30.457Z,39.82
2022-08-19T10:47:59.398Z,40.29
2022-08-19T10:50:47.068Z,40.09
2022-08-19T10:53:15.956Z,40.07
2022-08-19T10:56:04.714Z,40.23
2022-08-19T10:58:33.705Z,39.95
2022-08-19T11:01:02.781Z,40.44
2022-08-19T11:03:31.999Z,40.57
2022-08-19T11:06:07.383Z,40.61
2022-08-19T11:08:38.874Z,40.45
2022-08-19T11:11:09.879Z,40.30
2022-08-19T11:13:41.383Z,40.84
2022-08-19T11:16:15.291Z,40.41
2022-08-19T11:18:47.235Z,40.45
2022-08-19T11:21:21.790Z,39.79
2022-08-19T11:23:53.125Z,40.08
2022-08-19T11:26:22.938Z,40.81
2022-08-19T11:28:54.700Z,40.79
2022-08-19T11:31:29.162Z,40.83
2022-08-19T11:34:04.405Z,40.14
2022-08-19T11:36:34.537Z,40.97
2022-08-19T11:39:04.889Z,40.72
2022-08-19T11:41:33.480Z,40.17
2022-08-19T11:44:04.114Z,39.58
2022-08-19T11:46:32.901Z,39.55
2022-08-19T11:49:02.807Z,39.73
2022-08-19T11:51:31.498Z,39.51
2022-08-19T11:54:01.340Z,40.03
2022-08-19T11:56:30.202Z,40.37
2022-08-19T11:59:01.521Z,40.23
2022-08-19T12:01:30.649Z,40.53
2022-08-19T12:04:00.397Z,40.75
2022-08-19T12:06:33.068Z,40.74
2022-08-19T12:09:06.840Z,41.16
2022-08-19T12:11:41.365Z,41.16
2022-08-19T12:14:15.473Z,40.79
2022-08-19T12:16:50.939Z,40.16
2022-08-19T12:19:22.653Z,40.58
2022-08-19T12:21:52.487Z,40.27
2022-08-19T12:24:24.518Z,40.30
2022-08-19T12:26:54.680Z,39.91
2022-08-19T12:29:29.710Z,39.65
2022-08-19T12:32:03.872Z,39.54
2022-08-19T12:34:34.450Z,39.76
2022-08-19T12:37:05.788Z,39.81
2022-08-19T12:39:45.403Z,39.80
2022-08-19T12:42:16.400Z,39.52
2022-08-19T12:44:46.293Z,39.44
2022-08-19T12:47:15.700Z,39.39
2022-08-19T12:49:53.921Z,38.87
2022-08-19T12:52:27.113Z,39.12
2022-08-19T12:54:58.111Z,38.98
2022-08-19T12:57:32.146Z,38.97
2022-08-19T13:00:12.709Z,38.93
2022-08-19T13:02:45.910Z,38.32
2022-08-19T13:05:18.482Z,37.72
2022-08-19T13:07:47.374Z,37.77
2022-08-19T13:10:19.212Z,37.66
2022-08-19T13:12:50.388Z,37.76
2022-08-19T13:15:23.742Z,37.77
2022-08-19T13:17:55.059Z,37.70
2022-08-19T13:20:24.388Z,37.54
2022-08-19T13:22:53.219Z,37.35
2022-08-19T13:25:22.614Z,36.86
2022-08-19T13:27:53.208Z,36.55
2022-08-19T13:30:40.457Z,35.96
2022-08-19T13:33:16.242Z,35.96
2022-08-19T13:35:51.681Z,36.22
2022-08-19T13:38:22.738Z,36.36
2022-08-19T13:40:53.836Z,36.41
2022-08-19T13:43:26.928Z,36.39
2022-08-19T13:45:59.501Z,36.22
2022-08-19T13:48:28.240Z,35.98
2022-08-19T13:50:57.488Z,35.86
2022-08-19T13:53:26.174Z,35.66
2022-08-19T13:55:55.377Z,35.52
2022-08-19T13:58:24.369Z,35.33
2022-08-19T14:00:52.987Z,35.04
2022-08-19T14:03:22.554Z,34.98
2022-08-19T14:05:50.935Z,34.96
2022-08-19T14:08:20.234Z,35.03
2022-08-19T14:10:49.845Z,34.86
2022-08-19T14:13:21.611Z,34.82
2022-08-19T14:15:51.824Z,34.62
2022-08-19T14:18:20.612Z,34.59
2022-08-19T14:20:49.202Z,34.58
2022-08-19T14:23:17.880Z,34.56
2022-08-19T14:25:47.794Z,34.58
2022-08-19T14:28:18.016Z,34.50
2022-08-19T14:30:50.181Z,34.50
2022-08-19T14:33:24.094Z,34.43
2022-08-19T14:35:59.649Z,34.35
2022-08-19T14:38:33.092Z,34.22
2022-08-19T14:41:23.529Z,34.21
2022-08-19T14:43:54.208Z,34.02
2022-08-19T14:46:28.092Z,34.02
2022-08-19T14:48:59.833Z,33.98
2022-08-19T14:51:29.228Z,33.88
2022-08-19T14:53:58.123Z,33.75
2022-08-19T14:56:30.089Z,33.65
2022-08-19T14:59:02.251Z,33.55
2022-08-19T15:01:31.095Z,33.46
2022-08-19T15:03:59.831Z,33.37
2022-08-19T15:06:29.437Z,33.45
2022-08-19T15:09:02.041Z,33.45
2022-08-19T15:11:34.857Z,33.48
2022-08-19T15:14:04.195Z,33.53
2022-08-19T15:16:34.253Z,33.45
2022-08-19T15:19:02.898Z,33.36
2022-08-19T15:21:31.965Z,33.33
2022-08-19T15:24:02.130Z,33.30
2022-08-19T15:26:33.555Z,33.25
2022-08-19T15:29:05.988Z,33.15
2022-08-19T15:31:38.186Z,33.07
2022-08-19T15:34:07.993Z,32.96
2022-08-19T15:36:38.237Z,32.86
2022-08-19T15:39:07.649Z,32.75
2022-08-19T15:41:37.236Z,32.66
2022-08-19T15:44:11.623Z,32.55
2022-08-19T15:46:43.427Z,32.41
2022-08-19T15:49:14.383Z,32.38
2022-08-19T15:51:45.759Z,32.31
2022-08-19T15:54:19.348Z,32.21
2022-08-19T15:57:08.575Z,32.02
2022-08-19T16:00:01.540Z,31.85
2022-08-19T16:02:53.761Z,31.69
2022-08-19T16:05:45.096Z,31.63
2022-08-19T16:08:15.821Z,31.51
2022-08-19T16:10:44.719Z,31.40
2022-08-19T16:13:13.609Z,31.27
2022-08-19T16:15:43.629Z,31.10
2022-08-19T16:18:12.310Z,31.01
2022-08-19T16:20:41.397Z,30.91
2022-08-19T16:23:11.519Z,30.80
2022-08-19T16:25:40.516Z,30.70
2022-08-19T16:28:11.027Z,30.60
2022-08-19T16:30:41.034Z,30.50
2022-08-19T16:33:10.879Z,30.40
2022-08-19T16:35:40.082Z,30.25
2022-08-19T16:38:08.956Z,30.11
2022-08-19T16:40:37.652Z,29.94
2022-08-19T16:43:06.838Z,29.75
2022-08-19T16:45:35.635Z,29.49
2022-08-19T16:48:04.894Z,29.24
2022-08-19T16:50:48.768Z,29.06
2022-08-19T16:53:21.831Z,28.93
2022-08-19T16:55:51.175Z,28.83
2022-08-19T16:58:22.360Z,28.72
2022-08-19T17:01:03.719Z,28.60
2022-08-19T17:03:36.352Z,28.50
2022-08-19T17:06:20.856Z,28.41
2022-08-19T17:08:51.724Z,28.29
2022-08-19T17:11:21.975Z,28.15
2022-08-19T17:13:52.000Z,27.99
2022-08-19T17:16:24.824Z,27.85
2022-08-19T17:18:56.171Z,27.73
2022-08-19T17:21:28.458Z,27.62
2022-08-19T17:23:58.927Z,27.54
2022-08-19T17:26:29.605Z,27.44
2022-08-19T17:28:59.925Z,27.32
2022-08-19T17:31:31.542Z,27.19
2022-08-19T17:34:01.034Z,27.04
2022-08-19T17:36:34.418Z,26.89
2022-08-19T17:39:05.326Z,26.74
2022-08-19T17:41:34.740Z,26.59
2022-08-19T17:44:04.742Z,26.43
2022-08-19T17:46:34.281Z,26.27
2022-08-19T17:49:03.041Z,26.14
2022-08-19T17:51:35.971Z,26.04
2022-08-19T17:54:05.891Z,25.94
2022-08-19T17:56:34.769Z,25.84
2022-08-19T17:59:03.457Z,25.72
2022-08-19T18:01:52.107Z,25.61
2022-08-19T18:04:25.195Z,25.52
2022-08-19T18:06:55.645Z,25.45
2022-08-19T18:09:42.254Z,25.38
2022-08-19T18:12:14.247Z,25.30
2022-08-19T18:14:43.089Z,25.23
2022-08-19T18:17:15.537Z,25.15
2022-08-19T18:19:45.267Z,25.08
2022-08-19T18:22:37.518Z,25.05
2022-08-19T18:25:11.839Z,25.02
2022-08-19T18:27:43.534Z,24.98
2022-08-19T18:30:13.091Z,24.94
2022-08-19T18:32:42.683Z,24.85
2022-08-19T18:35:18.366Z,24.77
2022-08-19T18:37:47.435Z,24.67
2022-08-19T18:40:38.653Z,24.57
2022-08-19T18:43:26.186Z,24.44
2022-08-19T18:46:13.778Z,24.34
2022-08-19T18:49:02.461Z,24.24
2022-08-19T18:51:32.448Z,24.14
2022-08-19T18:54:01.878Z,24.04
2022-08-19T18:56:35.176Z,23.96
2022-08-19T18:59:03.973Z,23.85
2022-08-19T19:01:37.087Z,23.78
2022-08-19T19:04:11.674Z,23.74
2022-08-19T19:06:41.701Z,23.71
2022-08-19T19:09:19.894Z,23.64
2022-08-19T19:11:52.172Z,23.56
2022-08-19T19:14:48.587Z,23.48
2022-08-19T19:17:19.034Z,23.45
2022-08-19T19:19:48.031Z,23.41
2022-08-19T19:22:23.170Z,23.36
2022-08-19T19:24:54.513Z,23.35
2022-08-19T19:27:23.613Z,23.34
2022-08-19T19:29:53.115Z,23.32
2022-08-19T19:32:28.886Z,23.27
2022-08-19T19:34:57.871Z,23.23
2022-08-19T19:37:26.642Z,23.18
2022-08-19T19:39:55.255Z,23.11
2022-08-19T19:42:24.625Z,22.96
2022-08-19T19:44:55.040Z,22.84
2022-08-19T19:47:25.946Z,22.73
2022-08-19T19:50:14.706Z,22.62
2022-08-19T19:52:46.509Z,22.42
2022-08-19T19:55:18.609Z,22.24
2022-08-19T19:57:49.302Z,22.12
2022-08-19T20:00:19.265Z,22.06
2022-08-19T20:02:50.823Z,22.03
2022-08-19T20:05:21.871Z,22.03
2022-08-19T20:08:13.237Z,21.97
2022-08-19T20:10:44.066Z,21.94
2022-08-19T20:13:15.829Z,21.86
2022-08-19T20:15:44.920Z,21.78
2022-08-19T20:18:16.779Z,21.72
2022-08-19T20:20:46.900Z,21.65
2022-08-19T20:23:15.683Z,21.56
2022-08-19T20:25:44.485Z,21.50
2022-08-19T20:28:13.384Z,21.41
2022-08-19T20:30:46.347Z,21.39
2022-08-19T20:33:15.654Z,21.41
2022-08-19T20:35:45.526Z,21.42
2022-08-19T20:38:14.357Z,21.43
2022-08-19T20:40:43.045Z,21.45
2022-08-19T20:43:13.801Z,21.47
2022-08-19T20:45:42.970Z,21.52
2022-08-19T20:48:12.780Z,21.58
2022-08-19T20:50:41.878Z,21.65
2022-08-19T20:53:13.432Z,21.70
2022-08-19T20:55:47.504Z,21.75
2022-08-19T20:58:21.530Z,21.81
2022-08-19T21:00:52.637Z,21.86
2022-08-19T21:03:24.151Z,21.88
2022-08-19T21:05:53.249Z,21.88
2022-08-19T21:08:23.405Z,21.91
2022-08-19T21:10:53.764Z,21.94
2022-08-19T21:13:23.298Z,21.91
2022-08-19T21:15:52.687Z,21.86
2022-08-19T21:18:23.330Z,21.83
2022-08-19T21:20:52.320Z,21.81
2022-08-19T21:23:25.140Z,21.77
2022-08-19T21:25:56.836Z,21.72
2022-08-19T21:28:34.389Z,21.72
2022-08-19T21:31:10.646Z,21.74
2022-08-19T21:33:39.608Z,21.76
2022-08-19T21:36:09.224Z,21.80
2022-08-19T21:38:38.414Z,21.82
2022-08-19T21:41:07.455Z,21.81
2022-08-19T21:43:38.036Z,21.82
2022-08-19T21:46:08.159Z,21.79
2022-08-19T21:48:37.261Z,21.79
2022-08-19T21:51:06.553Z,21.80
2022-08-19T21:53:36.070Z,21.79
2022-08-19T21:56:06.863Z,21.79
2022-08-19T21:58:39.579Z,21.78
2022-08-19T22:01:08.906Z,21.72
2022-08-19T22:03:38.943Z,21.63
2022-08-19T22:06:08.769Z,21.51
2022-08-19T22:08:37.553Z,21.43
2022-08-19T22:11:06.484Z,21.35
2022-08-19T22:13:40.264Z,21.27
2022-08-19T22:16:10.610Z,21.21
2022-08-19T22:18:40.319Z,21.16
2022-08-19T22:21:11.930Z,21.11
2022-08-19T22:23:42.697Z,21.06
2022-08-19T22:26:13.453Z,21.06
2022-08-19T22:28:43.035Z,21.02
2022-08-19T22:31:13.089Z,20.89
2022-08-19T22:33:42.396Z,20.83
2022-08-19T22:36:11.361Z,20.86
2022-08-19T22:38:40.713Z,20.82
2022-08-19T22:41:10.066Z,20.73
2022-08-19T22:43:38.854Z,20.69
2022-08-19T22:46:16.824Z,20.71
2022-08-19T22:48:48.332Z,20.76
2022-08-19T22:51:43.922Z,20.79
2022-08-19T22:54:12.609Z,20.77
2022-08-19T22:56:41.403Z,20.74
2022-08-19T22:59:11.730Z,20.71
2022-08-19T23:01:43.473Z,20.63
2022-08-19T23:04:13.310Z,20.58
2022-08-19T23:06:42.498Z,20.53
2022-08-19T23:09:16.957Z,20.54
2022-08-19T23:11:47.761Z,20.52
2022-08-19T23:14:18.312Z,20.47
2022-08-19T23:16:51.067Z,20.39
2022-08-19T23:19:21.928Z,20.27
2022-08-19T23:21:51.110Z,20.11
2022-08-19T23:24:20.801Z,19.92
2022-08-19T23:27:08.352Z,19.74
2022-08-19T23:29:56.442Z,19.55
2022-08-19T23:32:25.879Z,19.44
2022-08-19T23:34:56.986Z,19.36
2022-08-19T23:37:26.791Z,19.33
2022-08-19T23:39:56.083Z,19.32
2022-08-19T23:42:26.980Z,19.28
2022-08-19T23:45:07.222Z,19.26
2022-08-19T23:47:36.666Z,19.33
2022-08-19T23:50:12.079Z,19.42
2022-08-19T23:52:55.980Z,19.44
2022-08-19T23:55:30.604Z,19.48
2022-08-19T23:58:01.421Z,19.50
